Time;durP1;ratioP1;P1;durP2;ratioP2;P2;SDS_P1;SDS_P2;PMS_P1;PMS_P2;Temp;Humidity;BMP_temperature;BMP_pressure;BME280_temperature;BME280_humidity;BME280_pressure;Samples;Min_cycle;Max_cycle;Signal;HPM_P1;HPM_P2
2021/06/04 00:01:38;;;;;;;55.92;40.65;;;;;;;;;;5056461;28;20047;-69
2021/06/04 00:04:06;;;;;;;55.95;41.47;;;;;;;;;;5053198;28;20414;-69
2021/06/04 00:06:32;;;;;;;66.00;41.92;;;;;;;;;;5052301;28;20168;-69
2021/06/04 00:08:59;;;;;;;63.80;44.03;;;;;;;;;;5057970;28;20074;-69
2021/06/04 00:11:28;;;;;;;65.18;44.78;;;;;;;;;;5052997;28;20044;-69
2021/06/04 00:13:56;;;;;;;63.88;44.40;;;;;;;;;;5057418;28;20041;-69
2021/06/04 00:16:26;;;;;;;62.53;44.50;;;;;;;;;;5054677;28;20507;-69
2021/06/04 00:18:53;;;;;;;58.05;41.67;;;;;;;;;;5056316;28;20115;-69
2021/06/04 00:21:22;;;;;;;58.03;40.17;;;;;;;;;;5052198;28;20119;-69
2021/06/04 00:23:48;;;;;;;50.67;37.38;;;;;;;;;;5057432;28;20053;-69
2021/06/04 00:26:16;;;;;;;49.95;39.08;;;;;;;;;;5057474;28;20388;-69
2021/06/04 00:28:43;;;;;;;49.05;37.25;;;;;;;;;;5053095;28;20041;-69
2021/06/04 00:31:10;;;;;;;55.38;39.50;;;;;;;;;;5049227;28;20037;-69
2021/06/04 00:33:37;;;;;;;58.38;40.83;;;;;;;;;;5055203;28;20040;-69
2021/06/04 00:36:04;;;;;;;59.33;40.90;;;;;;;;;;5054534;28;20043;-69
2021/06/04 00:38:31;;;;;;;55.72;39.53;;;;;;;;;;5056486;28;21180;-69
2021/06/04 00:41:00;;;;;;;55.40;38.97;;;;;;;;;;5038535;28;20041;-69
2021/06/04 00:43:27;;;;;;;62.25;41.30;;;;;;;;;;5047454;28;20068;-68
2021/06/04 00:45:56;;;;;;;64.00;43.22;;;;;;;;;;5047034;28;20049;-69
2021/06/04 00:48:24;;;;;;;66.63;46.58;;;;;;;;;;5051196;28;20084;-69
2021/06/04 00:50:52;;;;;;;64.45;41.90;;;;;;;;;;5056704;28;20047;-69
2021/06/04 00:53:21;;;;;;;62.33;43.40;;;;;;;;;;5057152;28;20354;-69
2021/06/04 00:55:47;;;;;;;56.20;40.25;;;;;;;;;;5060780;28;20048;-69
2021/06/04 00:58:22;;;;;;;63.50;44.30;;;;;;;;;;5057978;28;20440;-69
2021/06/04 01:00:50;;;;;;;60.17;43.92;;;;;;;;;;5047349;28;20049;-69
2021/06/04 01:03:18;;;;;;;68.75;46.13;;;;;;;;;;5057176;28;20453;-69
2021/06/04 01:05:45;;;;;;;66.70;46.60;;;;;;;;;;5059676;28;20037;-69
2021/06/04 01:08:25;;;;;;;63.45;44.30;;;;;;;;;;5057440;28;20491;-69
2021/06/04 01:11:04;;;;;;;74.75;50.72;;;;;;;;;;5051300;28;20068;-69
2021/06/04 01:13:31;;;;;;;79.50;49.25;;;;;;;;;;5051826;28;20493;-69
2021/06/04 01:16:04;;;;;;;76.32;49.47;;;;;;;;;;5051853;28;20137;-69
2021/06/04 01:18:48;;;;;;;76.72;52.13;;;;;;;;;;5054322;28;20404;-69
2021/06/04 01:21:22;;;;;;;85.78;53.78;;;;;;;;;;5057092;28;20579;-69
2021/06/04 01:23:59;;;;;;;82.88;54.85;;;;;;;;;;5056141;28;20124;-69
2021/06/04 01:26:38;;;;;;;70.38;47.42;;;;;;;;;;5055650;28;20144;-69
2021/06/04 01:29:09;;;;;;;77.35;42.05;;;;;;;;;;5047329;28;20106;-69
2021/06/04 01:31:39;;;;;;;77.70;43.60;;;;;;;;;;5047244;28;20307;-69
2021/06/04 01:34:18;;;;;;;78.68;39.67;;;;;;;;;;5051778;28;20140;-69
2021/06/04 01:36:51;;;;;;;66.47;39.85;;;;;;;;;;5041883;28;20041;-69
2021/06/04 01:39:22;;;;;;;42.70;32.92;;;;;;;;;;5056113;28;20334;-69
2021/06/04 01:41:49;;;;;;;42.72;31.38;;;;;;;;;;5047529;28;20049;-69
2021/06/04 01:44:18;;;;;;;42.35;32.80;;;;;;;;;;5052673;28;20102;-69
2021/06/04 01:46:48;;;;;;;45.53;35.17;;;;;;;;;;5049254;28;20519;-69
2021/06/04 01:49:17;;;;;;;46.97;35.00;;;;;;;;;;5051902;28;20056;-69
2021/06/04 01:51:45;;;;;;;49.10;35.60;;;;;;;;;;5062184;28;20100;-69
2021/06/04 01:54:18;;;;;;;54.95;39.08;;;;;;;;;;5054889;28;20443;-69
2021/06/04 01:56:47;;;;;;;334.00;46.17;;;;;;;;;;5062378;28;20112;-69
2021/06/04 01:59:21;;;;;;;125.75;43.05;;;;;;;;;;5046471;28;20485;-69
2021/06/04 02:01:48;;;;;;;525.70;43.38;;;;;;;;;;5051529;28;20041;-69
2021/06/04 02:04:17;;;;;;;479.02;41.35;;;;;;;;;;5050528;28;20036;-69
2021/06/04 02:06:44;;;;;;;673.50;46.58;;;;;;;;;;5053855;28;20037;-69
2021/06/04 02:09:12;;;;;;;719.17;49.50;;;;;;;;;;5049661;28;20357;-69
2021/06/04 02:11:39;;;;;;;670.72;47.20;;;;;;;;;;5050898;28;20067;-69
2021/06/04 02:14:07;;;;;;;424.63;35.20;;;;;;;;;;5044612;28;20093;-69
2021/06/04 02:16:40;;;;;;;478.77;40.80;;;;;;;;;;5044314;28;20067;-69
2021/06/04 02:19:09;;;;;;;594.33;48.80;;;;;;;;;;5060415;28;20170;-69
2021/06/04 02:21:39;;;;;;;460.40;36.10;;;;;;;;;;5052530;28;20084;-69
2021/06/04 02:24:11;;;;;;;578.78;39.38;;;;;;;;;;5051939;28;20048;-69
2021/06/04 02:26:39;;;;;;;499.33;43.45;;;;;;;;;;5050849;28;20055;-69
2021/06/04 02:29:09;;;;;;;461.88;47.72;;;;;;;;;;5051575;28;20370;-69
2021/06/04 02:31:36;;;;;;;120.13;45.70;;;;;;;;;;5050294;28;20598;-69
2021/06/04 02:34:07;;;;;;;101.20;48.30;;;;;;;;;;5050827;28;20053;-69
2021/06/04 02:36:36;;;;;;;79.55;46.55;;;;;;;;;;5056506;28;20041;-69
2021/06/04 02:39:12;;;;;;;72.75;47.20;;;;;;;;;;5058091;28;20453;-69
2021/06/04 02:41:41;;;;;;;63.47;42.00;;;;;;;;;;5055979;28;20169;-69
2021/06/04 02:44:11;;;;;;;64.93;44.05;;;;;;;;;;5050689;28;20037;-69
2021/06/04 02:46:41;;;;;;;60.05;40.75;;;;;;;;;;5054016;28;20171;-69
2021/06/04 02:49:09;;;;;;;78.47;45.65;;;;;;;;;;5055149;28;20111;-69
2021/06/04 02:51:51;;;;;;;63.13;41.38;;;;;;;;;;5053964;28;20119;-70
2021/06/04 02:54:20;;;;;;;88.18;49.15;;;;;;;;;;5050677;28;20067;-69
2021/06/04 02:56:48;;;;;;;87.68;54.28;;;;;;;;;;5056255;28;20040;-69
2021/06/04 02:59:18;;;;;;;78.07;49.63;;;;;;;;;;5051766;28;20529;-69
2021/06/04 03:01:49;;;;;;;61.55;43.92;;;;;;;;;;5057015;28;20048;-69
2021/06/04 03:04:16;;;;;;;64.25;43.10;;;;;;;;;;5059543;28;20107;-69
2021/06/04 03:06:45;;;;;;;56.60;40.22;;;;;;;;;;5051471;28;20033;-69
2021/06/04 03:09:13;;;;;;;45.75;35.22;;;;;;;;;;5053802;28;20041;-69
2021/06/04 03:11:41;;;;;;;51.10;39.38;;;;;;;;;;5048858;28;20190;-69
2021/06/04 03:14:08;;;;;;;58.05;40.75;;;;;;;;;;5054411;28;20504;-69
2021/06/04 03:16:34;;;;;;;53.83;39.22;;;;;;;;;;5048965;28;20037;-69
2021/06/04 03:19:04;;;;;;;47.83;36.75;;;;;;;;;;5058291;28;20116;-69
2021/06/04 03:21:32;;;;;;;36.08;30.48;;;;;;;;;;5057083;28;20091;-69
2021/06/04 03:24:00;;;;;;;38.45;29.75;;;;;;;;;;5050573;28;20401;-69
2021/06/04 03:26:28;;;;;;;37.38;30.27;;;;;;;;;;5055647;28;20396;-69
2021/06/04 03:28:56;;;;;;;39.70;31.13;;;;;;;;;;5052240;28;20041;-69
2021/06/04 03:31:23;;;;;;;44.50;31.55;;;;;;;;;;5052352;28;20067;-69
2021/06/04 03:33:52;;;;;;;41.30;31.30;;;;;;;;;;5052245;28;20515;-69
2021/06/04 03:36:20;;;;;;;36.97;28.92;;;;;;;;;;5053804;28;20157;-69
2021/06/04 03:38:47;;;;;;;41.85;32.13;;;;;;;;;;5053893;28;20044;-69
2021/06/04 03:41:15;;;;;;;46.53;36.67;;;;;;;;;;5053952;28;20048;-69
2021/06/04 03:43:41;;;;;;;44.20;35.25;;;;;;;;;;5053808;28;20047;-69
2021/06/04 03:46:08;;;;;;;37.58;30.75;;;;;;;;;;5049291;28;20037;-69
2021/06/04 03:48:35;;;;;;;36.83;29.85;;;;;;;;;;5048858;28;20076;-69
2021/06/04 03:51:05;;;;;;;36.53;30.85;;;;;;;;;;5057967;28;20107;-69
2021/06/04 03:53:32;;;;;;;40.60;33.50;;;;;;;;;;5051099;28;20384;-69
2021/06/04 03:55:58;;;;;;;42.15;32.33;;;;;;;;;;5052280;28;20037;-69
2021/06/04 03:58:25;;;;;;;37.10;30.23;;;;;;;;;;5046047;28;20356;-69
2021/06/04 04:00:54;;;;;;;34.45;28.25;;;;;;;;;;5049748;28;20400;-69
2021/06/04 04:03:21;;;;;;;34.67;29.42;;;;;;;;;;5040710;28;20076;-69
2021/06/04 04:05:48;;;;;;;30.65;27.35;;;;;;;;;;5049409;28;20361;-69
2021/06/04 04:08:15;;;;;;;41.08;27.55;;;;;;;;;;5052088;28;20068;-69
2021/06/04 04:10:42;;;;;;;217.70;34.92;;;;;;;;;;5050629;28;20502;-69
2021/06/04 04:13:09;;;;;;;261.35;38.28;;;;;;;;;;5052881;28;20041;-69
2021/06/04 04:15:35;;;;;;;172.85;31.50;;;;;;;;;;5049299;28;20073;-69
2021/06/04 04:18:03;;;;;;;65.30;28.98;;;;;;;;;;5056876;28;20111;-69
2021/06/04 04:20:33;;;;;;;31.23;27.83;;;;;;;;;;5055368;28;20091;-69
2021/06/04 04:23:00;;;;;;;60.50;31.92;;;;;;;;;;5062034;28;20048;-69
2021/06/04 04:25:29;;;;;;;108.72;29.20;;;;;;;;;;5057962;28;20032;-69
2021/06/04 04:27:55;;;;;;;50.03;26.52;;;;;;;;;;5051803;28;20138;-69
2021/06/04 04:30:22;;;;;;;25.15;22.67;;;;;;;;;;5052823;28;20104;-69
2021/06/04 04:32:49;;;;;;;29.27;26.10;;;;;;;;;;5051451;28;20625;-69
2021/06/04 04:35:18;;;;;;;31.77;27.42;;;;;;;;;;5053999;28;20044;-69
2021/06/04 04:37:44;;;;;;;29.25;24.75;;;;;;;;;;5056217;28;20507;-69
2021/06/04 04:40:11;;;;;;;26.88;24.00;;;;;;;;;;5061915;28;20105;-69
2021/06/04 04:42:37;;;;;;;30.80;24.13;;;;;;;;;;5056787;28;20037;-69
2021/06/04 04:45:25;;;;;;;33.00;26.50;;;;;;;;;;5045309;28;20072;-69
2021/06/04 04:47:52;;;;;;;42.65;29.23;;;;;;;;;;5059246;28;20056;-69
2021/06/04 04:50:18;;;;;;;44.35;31.20;;;;;;;;;;5055603;28;20515;-69
2021/06/04 04:52:45;;;;;;;51.88;35.58;;;;;;;;;;5056586;28;20048;-70
2021/06/04 04:55:12;;;;;;;53.28;35.83;;;;;;;;;;5061260;28;20461;-71
2021/06/04 04:57:38;;;;;;;54.58;36.45;;;;;;;;;;5053646;28;20059;-69
2021/06/04 05:00:07;;;;;;;56.20;37.85;;;;;;;;;;5062380;28;20053;-70
2021/06/04 05:02:34;;;;;;;63.25;39.60;;;;;;;;;;5060392;28;20076;-69
2021/06/04 05:05:00;;;;;;;67.45;41.45;;;;;;;;;;5060422;28;20456;-70
2021/06/04 05:07:26;;;;;;;75.63;45.10;;;;;;;;;;5056103;28;20052;-69
2021/06/04 05:09:52;;;;;;;75.90;46.70;;;;;;;;;;5054146;28;20054;-70
2021/06/04 05:12:19;;;;;;;82.28;48.10;;;;;;;;;;5043851;28;20444;-70
2021/06/04 05:14:45;;;;;;;89.55;51.50;;;;;;;;;;5058876;28;20052;-70
2021/06/04 05:17:13;;;;;;;98.13;52.72;;;;;;;;;;5060757;28;20467;-69
2021/06/04 05:19:43;;;;;;;102.20;57.70;;;;;;;;;;5058013;28;20044;-70
2021/06/04 05:22:10;;;;;;;100.35;55.35;;;;;;;;;;5067231;28;20150;-70
2021/06/04 05:24:36;;;;;;;108.57;58.75;;;;;;;;;;5063137;28;20405;-70
2021/06/04 05:27:03;;;;;;;105.63;59.20;;;;;;;;;;5066057;28;20075;-70
2021/06/04 05:29:30;;;;;;;110.00;59.60;;;;;;;;;;5057822;28;20441;-71
2021/06/04 05:31:56;;;;;;;115.32;63.53;;;;;;;;;;5061087;28;20036;-72
2021/06/04 05:34:23;;;;;;;102.75;60.45;;;;;;;;;;5057905;28;20503;-72
2021/06/04 05:36:50;;;;;;;106.60;60.15;;;;;;;;;;5061596;28;20044;-72
2021/06/04 05:39:18;;;;;;;101.03;60.67;;;;;;;;;;5065665;28;20037;-73
2021/06/04 05:41:46;;;;;;;96.57;58.28;;;;;;;;;;5076696;28;20440;-72
2021/06/04 05:44:14;;;;;;;105.03;60.25;;;;;;;;;;5070055;28;20098;-72
2021/06/04 05:46:42;;;;;;;100.65;61.13;;;;;;;;;;5068782;28;20040;-72
2021/06/04 05:49:09;;;;;;;111.05;62.53;;;;;;;;;;5064979;28;20055;-72
2021/06/04 05:51:35;;;;;;;111.15;64.00;;;;;;;;;;5071286;28;20471;-72
2021/06/04 05:54:07;;;;;;;105.40;62.97;;;;;;;;;;5069984;28;20049;-72
2021/06/04 05:56:33;;;;;;;96.22;60.72;;;;;;;;;;5052650;28;20036;-72
2021/06/04 05:59:00;;;;;;;103.30;61.15;;;;;;;;;;5051382;28;20114;-72
2021/06/04 06:01:28;;;;;;;106.68;63.78;;;;;;;;;;5070133;28;20448;-72
2021/06/04 06:03:55;;;;;;;110.97;66.03;;;;;;;;;;5070241;28;20127;-72
2021/06/04 06:06:21;;;;;;;115.20;66.75;;;;;;;;;;5059829;28;20048;-72
2021/06/04 06:08:48;;;;;;;101.32;61.25;;;;;;;;;;5053888;28;20113;-72
2021/06/04 06:11:15;;;;;;;88.35;59.28;;;;;;;;;;5075268;28;20078;-72
2021/06/04 06:13:42;;;;;;;97.30;62.42;;;;;;;;;;5063807;28;20060;-72
2021/06/04 06:16:09;;;;;;;92.82;65.43;;;;;;;;;;5063597;28;20120;-72
2021/06/04 06:18:35;;;;;;;101.13;63.80;;;;;;;;;;5063080;28;20051;-72
2021/06/04 06:21:02;;;;;;;100.35;64.40;;;;;;;;;;5065020;28;20037;-72
2021/06/04 06:23:31;;;;;;;97.78;65.88;;;;;;;;;;5064217;28;20127;-73
2021/06/04 06:26:01;;;;;;;94.82;63.40;;;;;;;;;;5065354;28;20059;-72
2021/06/04 06:28:30;;;;;;;103.00;67.13;;;;;;;;;;5064072;28;20140;-72
2021/06/04 06:30:56;;;;;;;96.13;67.10;;;;;;;;;;5063756;28;20169;-72
2021/06/04 06:33:24;;;;;;;100.20;67.40;;;;;;;;;;5063189;28;20089;-72
2021/06/04 06:35:53;;;;;;;94.50;65.38;;;;;;;;;;5068512;28;20508;-72
2021/06/04 06:38:20;;;;;;;98.03;68.47;;;;;;;;;;5065075;28;20040;-72
2021/06/04 06:40:47;;;;;;;90.55;62.90;;;;;;;;;;5063134;28;20052;-72
2021/06/04 06:43:14;;;;;;;94.80;66.25;;;;;;;;;;5068374;28;20078;-72
2021/06/04 06:45:40;;;;;;;89.05;62.53;;;;;;;;;;5068734;28;20462;-72
2021/06/04 06:48:07;;;;;;;83.43;61.63;;;;;;;;;;5066550;28;20044;-74
2021/06/04 06:50:44;;;;;;;97.43;69.15;;;;;;;;;;5049228;28;20036;-72
2021/06/04 06:53:11;;;;;;;97.15;67.30;;;;;;;;;;5070927;28;20044;-72
2021/06/04 06:55:38;;;;;;;94.25;71.68;;;;;;;;;;5062501;28;20052;-72
2021/06/04 06:58:06;;;;;;;92.10;68.63;;;;;;;;;;5046516;28;20120;-73
2021/06/04 07:00:35;;;;;;;93.53;69.32;;;;;;;;;;5066324;28;20041;-73
2021/06/04 07:03:02;;;;;;;91.32;71.38;;;;;;;;;;5047016;28;20412;-73
2021/06/04 07:05:28;;;;;;;104.55;72.88;;;;;;;;;;5069055;28;20052;-73
2021/06/04 07:07:55;;;;;;;99.15;72.10;;;;;;;;;;5067438;28;20036;-73
2021/06/04 07:10:24;;;;;;;94.13;71.75;;;;;;;;;;5064390;28;20068;-73
2021/06/04 07:12:50;;;;;;;85.10;65.68;;;;;;;;;;5048121;28;20068;-73
2021/06/04 07:15:18;;;;;;;94.22;71.18;;;;;;;;;;5058527;28;20044;-73
2021/06/04 07:17:44;;;;;;;96.43;70.05;;;;;;;;;;5062869;28;20061;-73
2021/06/04 07:20:12;;;;;;;80.70;64.68;;;;;;;;;;5066843;28;20048;-73
2021/06/04 07:22:39;;;;;;;82.93;62.72;;;;;;;;;;5065699;28;20112;-73
2021/06/04 07:25:12;;;;;;;92.38;66.70;;;;;;;;;;5057906;28;20546;-73
2021/06/04 07:27:38;;;;;;;92.03;67.85;;;;;;;;;;5065630;28;20036;-73
2021/06/04 07:30:08;;;;;;;84.88;68.20;;;;;;;;;;5043609;28;20593;-73
2021/06/04 07:32:35;;;;;;;89.72;69.18;;;;;;;;;;5050138;28;20131;-73
2021/06/04 07:35:14;;;;;;;84.05;67.35;;;;;;;;;;5050806;28;20139;-73
2021/06/04 07:37:41;;;;;;;90.70;70.25;;;;;;;;;;5050502;28;20136;-73
2021/06/04 07:40:09;;;;;;;78.38;65.72;;;;;;;;;;5054301;28;20468;-73
2021/06/04 07:42:36;;;;;;;83.65;69.57;;;;;;;;;;5054033;28;20048;-73
2021/06/04 07:45:03;;;;;;;92.97;71.45;;;;;;;;;;5052821;28;20055;-73
2021/06/04 07:47:30;;;;;;;84.57;66.30;;;;;;;;;;5047355;28;20148;-73
2021/06/04 07:49:56;;;;;;;85.65;65.15;;;;;;;;;;5048929;28;20056;-73
2021/06/04 07:52:22;;;;;;;88.68;69.05;;;;;;;;;;5049115;28;20060;-73
2021/06/04 07:54:50;;;;;;;85.82;70.20;;;;;;;;;;5055734;28;20080;-73
2021/06/04 07:57:17;;;;;;;89.30;72.35;;;;;;;;;;5056764;28;20048;-73
2021/06/04 07:59:43;;;;;;;85.40;69.00;;;;;;;;;;5052174;28;20071;-81
2021/06/04 08:02:10;;;;;;;92.95;73.82;;;;;;;;;;5045568;28;20041;-74
2021/06/04 08:04:37;;;;;;;90.05;73.32;;;;;;;;;;5049173;28;20190;-74
2021/06/04 08:07:04;;;;;;;89.18;70.88;;;;;;;;;;5043799;28;20049;-74
2021/06/04 08:09:30;;;;;;;88.63;69.85;;;;;;;;;;5052009;28;20045;-74
2021/06/04 08:12:00;;;;;;;81.13;65.28;;;;;;;;;;5053850;28;20044;-73
2021/06/04 08:14:29;;;;;;;88.65;71.35;;;;;;;;;;5052651;28;20037;-76
2021/06/04 08:16:58;;;;;;;87.05;70.60;;;;;;;;;;5059821;28;20052;-73
2021/06/04 08:19:35;;;;;;;90.53;69.80;;;;;;;;;;5050531;28;20041;-73
2021/06/04 08:22:03;;;;;;;87.45;73.00;;;;;;;;;;5042866;28;20060;-73
2021/06/04 08:24:32;;;;;;;85.95;73.28;;;;;;;;;;5052136;28;20400;-73
2021/06/04 08:27:01;;;;;;;84.60;72.22;;;;;;;;;;5054597;28;20517;-73
2021/06/04 08:29:30;;;;;;;85.32;73.40;;;;;;;;;;5062304;28;20041;-73
2021/06/04 08:31:59;;;;;;;94.00;74.80;;;;;;;;;;5054372;28;20518;-73
2021/06/04 08:34:27;;;;;;;90.40;76.25;;;;;;;;;;5052956;28;20047;-73
2021/06/04 08:36:54;;;;;;;92.25;76.35;;;;;;;;;;5040898;28;20491;-73
2021/06/04 08:39:27;;;;;;;85.97;74.18;;;;;;;;;;5054069;28;20475;-73
2021/06/04 08:41:55;;;;;;;85.00;73.82;;;;;;;;;;5056489;28;20036;-73
2021/06/04 08:44:34;;;;;;;82.20;69.75;;;;;;;;;;5054941;28;20056;-73
2021/06/04 08:47:03;;;;;;;89.85;71.70;;;;;;;;;;5055690;28;20227;-73
2021/06/04 08:49:36;;;;;;;82.57;72.45;;;;;;;;;;5058398;28;20044;-73
2021/06/04 08:52:19;;;;;;;82.75;69.93;;;;;;;;;;5058551;28;20094;-73
2021/06/04 08:54:45;;;;;;;80.82;68.20;;;;;;;;;;5049336;28;20044;-73
2021/06/04 08:57:14;;;;;;;74.85;66.15;;;;;;;;;;5046028;28;20032;-73
2021/06/04 08:59:41;;;;;;;77.57;65.80;;;;;;;;;;5059022;28;20101;-73
2021/06/04 09:02:22;;;;;;;74.43;63.20;;;;;;;;;;5056761;28;20044;-73
2021/06/04 09:04:51;;;;;;;71.03;58.67;;;;;;;;;;5052808;28;20079;-73
2021/06/04 09:07:21;;;;;;;70.70;61.28;;;;;;;;;;5050588;28;20147;-73
2021/06/04 09:10:05;;;;;;;68.75;57.90;;;;;;;;;;5048616;28;20049;-73
2021/06/04 09:12:36;;;;;;;64.13;57.08;;;;;;;;;;5038757;28;20033;-73
2021/06/04 09:15:06;;;;;;;64.88;55.90;;;;;;;;;;5052965;28;20123;-73
2021/06/04 09:17:43;;;;;;;67.05;56.03;;;;;;;;;;5053623;28;20090;-74
2021/06/04 09:20:12;;;;;;;70.45;57.15;;;;;;;;;;5052748;28;20037;-73
2021/06/04 09:22:42;;;;;;;74.80;59.25;;;;;;;;;;5056210;28;20060;-73
2021/06/04 09:25:10;;;;;;;65.75;57.63;;;;;;;;;;5076424;28;20040;-73
2021/06/04 09:27:38;;;;;;;69.68;59.60;;;;;;;;;;5068028;28;20075;-73
2021/06/04 09:30:14;;;;;;;65.28;56.30;;;;;;;;;;5072679;28;20053;-73
2021/06/04 09:32:42;;;;;;;66.85;52.65;;;;;;;;;;5053058;28;20087;-73
2021/06/04 09:35:15;;;;;;;62.13;51.47;;;;;;;;;;5069167;28;20437;-73
2021/06/04 09:37:42;;;;;;;57.63;51.25;;;;;;;;;;5064039;28;20399;-73
2021/06/04 09:40:11;;;;;;;59.13;52.67;;;;;;;;;;5065465;28;20111;-73
2021/06/04 09:42:49;;;;;;;54.45;47.85;;;;;;;;;;5068718;28;20442;-73
2021/06/04 09:45:22;;;;;;;53.90;46.42;;;;;;;;;;5066849;28;20049;-73
2021/06/04 09:47:48;;;;;;;;;;;;;;;;;;5056072;28;20056;-73
2021/06/04 09:50:18;;;;;;;49.80;44.63;;;;;;;;;;5058056;28;19920;-73
2021/06/04 09:52:45;;;;;;;50.90;44.63;;;;;;;;;;5061668;28;20381;-74
2021/06/04 09:55:11;;;;;;;47.25;41.67;;;;;;;;;;5056884;28;20049;-73
2021/06/04 09:57:38;;;;;;;47.90;42.72;;;;;;;;;;5056547;28;20547;-73
2021/06/04 10:00:28;;;;;;;46.72;41.63;;;;;;;;;;5059898;28;20045;-74
2021/06/04 10:03:05;;;;;;;46.55;41.72;;;;;;;;;;5040744;28;20073;-74
2021/06/04 10:05:34;;;;;;;49.15;43.95;;;;;;;;;;5047466;28;20190;-74
2021/06/04 10:08:02;;;;;;;51.83;43.95;;;;;;;;;;5056564;28;20063;-75
2021/06/04 10:10:34;;;;;;;45.95;40.88;;;;;;;;;;5052238;28;20037;-74
2021/06/04 10:13:36;;;;;;;46.25;41.30;;;;;;;;;;5032943;28;20052;-74
2021/06/04 10:16:09;;;;;;;44.78;40.17;;;;;;;;;;5055557;28;20060;-74
2021/06/04 10:18:38;;;;;;;46.47;41.63;;;;;;;;;;5060412;28;20047;-74
2021/06/04 10:21:10;;;;;;;45.58;40.60;;;;;;;;;;5043518;28;20231;-74
2021/06/04 10:23:39;;;;;;;43.80;39.22;;;;;;;;;;5048915;28;20071;-74
2021/06/04 10:26:24;;;;;;;43.00;38.55;;;;;;;;;;5057431;28;20106;-74
2021/06/04 10:28:53;;;;;;;44.53;39.80;;;;;;;;;;5053886;28;20198;-74
2021/06/04 10:31:28;;;;;;;40.97;36.80;;;;;;;;;;5054667;28;20739;-74
2021/06/04 10:33:59;;;;;;;45.67;38.03;;;;;;;;;;5050415;28;20111;-74
2021/06/04 10:36:29;;;;;;;40.17;36.05;;;;;;;;;;5049506;28;20068;-73
2021/06/04 10:38:59;;;;;;;39.70;35.47;;;;;;;;;;5055494;28;20045;-74
2021/06/04 10:41:32;;;;;;;39.08;35.08;;;;;;;;;;5054772;28;20037;-74
2021/06/04 10:44:19;;;;;;;37.15;33.22;;;;;;;;;;5047511;28;20135;-74
2021/06/04 10:46:46;;;;;;;35.75;32.05;;;;;;;;;;5050273;28;20044;-74
2021/06/04 10:49:35;;;;;;;33.35;29.80;;;;;;;;;;5039375;28;20053;-74
2021/06/04 10:52:07;;;;;;;37.35;29.05;;;;;;;;;;5031129;28;20052;-74
2021/06/04 10:54:52;;;;;;;29.92;26.98;;;;;;;;;;5036821;28;20132;-74
2021/06/04 10:57:26;;;;;;;33.25;27.17;;;;;;;;;;5025266;28;20106;-74
2021/06/04 10:59:56;;;;;;;29.27;26.08;;;;;;;;;;5036169;28;20075;-74
2021/06/04 11:02:40;;;;;;;27.80;24.98;;;;;;;;;;5030239;28;20049;-74
2021/06/04 11:05:12;;;;;;;25.75;23.13;;;;;;;;;;5031731;28;21059;-74
2021/06/04 11:07:43;;;;;;;27.10;24.13;;;;;;;;;;5028675;28;20067;-74
2021/06/04 11:10:09;;;;;;;25.20;22.55;;;;;;;;;;5030796;28;20041;-75
2021/06/04 11:12:47;;;;;;;26.30;22.65;;;;;;;;;;5032944;28;20057;-74
2021/06/04 11:15:18;;;;;;;26.90;23.58;;;;;;;;;;5037370;28;20045;-74
2021/06/04 11:17:46;;;;;;;25.98;23.25;;;;;;;;;;5031768;28;20045;-74
2021/06/04 11:20:16;;;;;;;25.27;22.60;;;;;;;;;;5030496;28;20121;-74
2021/06/04 11:22:46;;;;;;;24.45;21.40;;;;;;;;;;5028784;28;20064;-74
2021/06/04 11:25:19;;;;;;;25.33;22.63;;;;;;;;;;5031178;28;20069;-74
2021/06/04 11:27:45;;;;;;;22.45;20.08;;;;;;;;;;5035870;28;20053;-74
2021/06/04 11:30:17;;;;;;;24.60;20.85;;;;;;;;;;5042031;28;20037;-74
2021/06/04 11:32:50;;;;;;;24.35;21.63;;;;;;;;;;5040529;28;20400;-75
2021/06/04 11:35:19;;;;;;;23.48;19.88;;;;;;;;;;5040281;28;20076;-74
2021/06/04 11:37:50;;;;;;;21.80;19.35;;;;;;;;;;5041327;28;20190;-74
2021/06/04 11:40:20;;;;;;;22.42;18.35;;;;;;;;;;5037505;28;20064;-74
2021/06/04 11:42:54;;;;;;;24.55;19.58;;;;;;;;;;5044922;28;20144;-74
2021/06/04 11:45:22;;;;;;;22.67;19.42;;;;;;;;;;5048479;28;20125;-74
2021/06/04 11:47:49;;;;;;;21.83;19.50;;;;;;;;;;5033132;28;20120;-74
2021/06/04 11:50:25;;;;;;;26.55;19.88;;;;;;;;;;5053043;28;20136;-73
2021/06/04 11:52:53;;;;;;;21.88;19.58;;;;;;;;;;5062116;28;20041;-74
2021/06/04 11:55:23;;;;;;;22.45;20.17;;;;;;;;;;5055558;28;20052;-74
2021/06/04 11:57:52;;;;;;;26.50;19.58;;;;;;;;;;5045196;28;20044;-74
2021/06/04 12:00:25;;;;;;;22.33;20.08;;;;;;;;;;5048203;28;20456;-73
2021/06/04 12:03:17;;;;;;;21.27;19.23;;;;;;;;;;5050488;28;20157;-74
2021/06/04 12:05:45;;;;;;;20.80;18.45;;;;;;;;;;5055525;28;20040;-74
2021/06/04 12:08:26;;;;;;;23.42;18.40;;;;;;;;;;5049139;28;20098;-74
2021/06/04 12:11:12;;;;;;;21.55;18.30;;;;;;;;;;5050886;28;20057;-74
2021/06/04 12:13:41;;;;;;;23.23;19.83;;;;;;;;;;5051531;28;20045;-74
2021/06/04 12:16:31;;;;;;;22.77;20.33;;;;;;;;;;5055450;28;20033;-74
2021/06/04 12:19:16;;;;;;;24.00;19.63;;;;;;;;;;5054051;28;20068;-74
2021/06/04 12:21:43;;;;;;;20.83;18.52;;;;;;;;;;5051460;28;20076;-74
2021/06/04 12:24:10;;;;;;;27.88;20.38;;;;;;;;;;5054997;28;20386;-74
2021/06/04 12:26:40;;;;;;;24.05;18.75;;;;;;;;;;5047387;28;20067;-74
2021/06/04 12:29:21;;;;;;;21.73;19.52;;;;;;;;;;5054856;28;20052;-74
2021/06/04 12:31:52;;;;;;;23.30;18.83;;;;;;;;;;5050459;28;20037;-74
2021/06/04 12:34:39;;;;;;;21.05;18.85;;;;;;;;;;5052494;28;20122;-74
2021/06/04 12:37:10;;;;;;;20.17;18.08;;;;;;;;;;5058844;28;20069;-74
2021/06/04 12:39:39;;;;;;;20.40;17.85;;;;;;;;;;5051086;28;20048;-74
2021/06/04 12:42:11;;;;;;;21.33;17.77;;;;;;;;;;5050929;28;20123;-74
2021/06/04 12:44:39;;;;;;;19.55;17.45;;;;;;;;;;5050270;28;20393;-74
2021/06/04 12:47:07;;;;;;;18.48;16.77;;;;;;;;;;5046257;28;20055;-74
2021/06/04 12:49:34;;;;;;;20.27;16.90;;;;;;;;;;5044130;28;20140;-74
2021/06/04 12:52:01;;;;;;;20.10;18.15;;;;;;;;;;5036194;28;20127;-74
2021/06/04 12:54:29;;;;;;;19.20;17.20;;;;;;;;;;5033629;28;20292;-74
2021/06/04 12:56:58;;;;;;;20.20;18.10;;;;;;;;;;5027906;28;20048;-74
2021/06/04 12:59:25;;;;;;;22.73;19.48;;;;;;;;;;5028873;28;20126;-74
2021/06/04 13:02:09;;;;;;;23.17;19.35;;;;;;;;;;5030809;28;20040;-74
2021/06/04 13:04:37;;;;;;;22.70;20.30;;;;;;;;;;5030426;28;20473;-74
2021/06/04 13:07:10;;;;;;;22.60;20.25;;;;;;;;;;5037757;28;20048;-74
2021/06/04 13:09:38;;;;;;;22.90;20.02;;;;;;;;;;5029250;28;20041;-74
2021/06/04 13:12:32;;;;;;;21.58;19.38;;;;;;;;;;5038894;28;20063;-74
2021/06/04 13:15:07;;;;;;;21.55;19.42;;;;;;;;;;5029109;28;20054;-74
2021/06/04 13:17:35;;;;;;;22.45;19.95;;;;;;;;;;5037662;28;20068;-74
2021/06/04 13:20:12;;;;;;;21.20;18.77;;;;;;;;;;5031880;28;20176;-74
2021/06/04 13:22:40;;;;;;;21.48;19.10;;;;;;;;;;5030842;28;20371;-74
2021/06/04 13:25:15;;;;;;;20.42;17.65;;;;;;;;;;5030461;28;20049;-74
2021/06/04 13:27:42;;;;;;;22.02;19.67;;;;;;;;;;5030226;28;20033;-74
2021/06/04 13:30:12;;;;;;;23.40;19.40;;;;;;;;;;5037107;28;21720;-74
2021/06/04 13:32:49;;;;;;;23.42;20.30;;;;;;;;;;5031907;28;20524;-74
2021/06/04 13:35:22;;;;;;;22.58;20.38;;;;;;;;;;5033159;28;20056;-74
2021/06/04 13:37:54;;;;;;;25.45;21.80;;;;;;;;;;5032105;28;20488;-74
2021/06/04 13:40:21;;;;;;;24.10;21.52;;;;;;;;;;5040047;28;20045;-74
2021/06/04 13:42:49;;;;;;;23.40;20.88;;;;;;;;;;5029633;28;20061;-74
2021/06/04 13:45:16;;;;;;;22.52;20.25;;;;;;;;;;5033840;28;20048;-74
2021/06/04 13:47:45;;;;;;;22.98;20.33;;;;;;;;;;5034238;28;20418;-74
2021/06/04 13:50:17;;;;;;;24.50;20.95;;;;;;;;;;5046551;28;20041;-74
2021/06/04 13:53:02;;;;;;;22.30;19.95;;;;;;;;;;5051519;28;20057;-74
2021/06/04 13:55:29;;;;;;;22.83;19.88;;;;;;;;;;5057862;28;20431;-74
2021/06/04 13:58:14;;;;;;;23.50;21.10;;;;;;;;;;5032921;28;20045;-74
2021/06/04 14:00:41;;;;;;;23.08;20.70;;;;;;;;;;5050101;28;20186;-74
2021/06/04 14:03:13;;;;;;;23.65;21.20;;;;;;;;;;5041520;28;20150;-73
2021/06/04 14:05:39;;;;;;;;;;;;;;;;;;5045408;28;20041;-73
2021/06/04 14:08:07;;;;;;;26.80;21.63;;;;;;;;;;5041289;28;19928;-73
2021/06/04 14:10:49;;;;;;;23.88;21.17;;;;;;;;;;5048765;28;20101;-73
2021/06/04 14:13:19;;;;;;;23.98;21.35;;;;;;;;;;5052830;28;20053;-74
2021/06/04 14:15:45;;;;;;;24.52;21.38;;;;;;;;;;5052353;28;20101;-73
2021/06/04 14:18:26;;;;;;;22.25;19.85;;;;;;;;;;5048913;28;20083;-73
2021/06/04 14:20:53;;;;;;;25.48;20.92;;;;;;;;;;5051364;28;20053;-74
2021/06/04 14:23:23;;;;;;;24.02;21.05;;;;;;;;;;5049463;28;20032;-72
2021/06/04 14:25:49;;;;;;;28.42;21.30;;;;;;;;;;5052547;28;20114;-71
2021/06/04 14:28:21;;;;;;;27.13;21.23;;;;;;;;;;5045915;28;20056;-71
2021/06/04 14:30:50;;;;;;;30.50;22.08;;;;;;;;;;5049968;28;20120;-72
2021/06/04 14:33:21;;;;;;;25.85;23.15;;;;;;;;;;5051405;28;20044;-72